Rotterdam — PDGS — position and weather

sailwx.info

Track history (hours):
 
Tides and Currents Weather Stations Pressure Air Temp Water Temp Dewpoint Dewpoint Depression Visibility Wind Speed Wind Dir Waves Ship Positions

Rotterdam

Operator: Holland America Line

Last reported at 2020-Apr-02 21:30 UTC. Time now 2020-Apr-02 21:33 UTC.
Position N 26°05' W 080°07'.

Length 228 m; beam 29 m.

Type: Ship. MMSI: 24616700.

Date/timePositionNaut miles runAvg speedWind from/ knotsBaromVisibWave heightAir tempDewpointWater temp
2020-Apr-02 21:30N 26°05' W 080°07'1 1.7
2020-Apr-02 21:00N 26°06' W 080°06'10 6.5
2020-Apr-02 19:30N 26°07' W 079°55'510.2
2020-Apr-02 19:00N 26°09' W 079°50'1 2.0
2020-Apr-02 18:31N 26°08' W 079°50'1 0.2
2020-Apr-02 15:30N 26°08' W 079°49'17 8.7
2020-Apr-02 13:30N 25°53' W 079°40'11 7.3
2020-Apr-02 12:00N 26°03' W 079°37'3523.6
2020-Apr-02 12:00N 26°00' W 079°36'1111.2 020 / 101013.8 5.4 16.0-15.624.0
2020-Apr-02 11:00N 26°11' W 079°37'4 8.1
2020-Apr-02 10:30N 26°15' W 079°39'8 7.8
2020-Apr-02 09:30N 26°16' W 079°47'12 7.8
2020-Apr-02 08:00N 26°05' W 079°51'4 8.3
2020-Apr-02 07:30N 26°01' W 079°51'2613.3
2020-Apr-02 05:31N 25°35' W 079°53'  
Track history (hours):
 
Tides and Currents Weather Stations Pressure Air Temp Water Temp Dewpoint Dewpoint Depression Visibility Wind Speed Wind Dir Waves Ship Positions

Rotterdam

Operator: Holland America Line

Last reported at 2020-Apr-02 21:30 UTC. Time now 2020-Apr-02 21:33 UTC.
Position N 26°05' W 080°07'.

Length 228 m; beam 29 m.

Type: Ship. MMSI: 24616700.

Date/timePositionNaut miles runAvg speedWind from/ knotsBaromVisibWave heightAir tempDewpointWater temp
2020-Apr-02 21:30N 26°05' W 080°07'1 1.7
2020-Apr-02 21:00N 26°06' W 080°06'10 6.5
2020-Apr-02 19:30N 26°07' W 079°55'510.2
2020-Apr-02 19:00N 26°09' W 079°50'1 2.0
2020-Apr-02 18:31N 26°08' W 079°50'1 0.2
2020-Apr-02 15:30N 26°08' W 079°49'17 8.7
2020-Apr-02 13:30N 25°53' W 079°40'11 7.3
2020-Apr-02 12:00N 26°03' W 079°37'3523.6
2020-Apr-02 12:00N 26°00' W 079°36'1111.2 020 / 101013.8 5.4 16.0-15.624.0
2020-Apr-02 11:00N 26°11' W 079°37'4 8.1
2020-Apr-02 10:30N 26°15' W 079°39'8 7.8
2020-Apr-02 09:30N 26°16' W 079°47'12 7.8
2020-Apr-02 08:00N 26°05' W 079°51'4 8.3
2020-Apr-02 07:30N 26°01' W 079°51'2613.3
2020-Apr-02 05:31N 25°35' W 079°53'  

Dump ship's entire track history